sensor_id;sensor_type;location;lat;lon;timestamp;P1;durP1;ratioP1;P2;durP2;ratioP2
5379;SDS011;2713;42.680;23.310;2023-04-01T00:01:14;19.10;;;12.50;;
5379;SDS011;2713;42.680;23.310;2023-04-01T00:03:43;24.13;;;13.57;;
5379;SDS011;2713;42.680;23.310;2023-04-01T00:06:11;19.90;;;15.17;;
5379;SDS011;2713;42.680;23.310;2023-04-01T00:08:39;25.07;;;17.27;;
5379;SDS011;2713;42.680;23.310;2023-04-01T00:11:06;32.27;;;18.87;;
5379;SDS011;2713;42.680;23.310;2023-04-01T00:13:33;24.27;;;17.60;;
5379;SDS011;2713;42.680;23.310;2023-04-01T00:16:01;30.00;;;17.50;;
5379;SDS011;2713;42.680;23.310;2023-04-01T00:18:29;24.13;;;16.00;;
5379;SDS011;2713;42.680;23.310;2023-04-01T00:20:58;26.33;;;16.80;;
5379;SDS011;2713;42.680;23.310;2023-04-01T00:23:25;22.20;;;15.47;;
5379;SDS011;2713;42.680;23.310;2023-04-01T00:25:52;22.00;;;15.50;;
5379;SDS011;2713;42.680;23.310;2023-04-01T00:28:19;17.37;;;13.90;;
5379;SDS011;2713;42.680;23.310;2023-04-01T00:30:46;18.20;;;14.07;;
5379;SDS011;2713;42.680;23.310;2023-04-01T00:33:13;17.23;;;12.53;;
5379;SDS011;2713;42.680;23.310;2023-04-01T00:35:41;17.40;;;12.53;;
5379;SDS011;2713;42.680;23.310;2023-04-01T00:38:10;19.40;;;14.20;;
5379;SDS011;2713;42.680;23.310;2023-04-01T00:40:37;21.07;;;15.30;;
5379;SDS011;2713;42.680;23.310;2023-04-01T00:43:09;17.10;;;14.20;;
5379;SDS011;2713;42.680;23.310;2023-04-01T00:45:39;25.03;;;14.10;;
5379;SDS011;2713;42.680;23.310;2023-04-01T00:48:09;17.73;;;13.70;;
5379;SDS011;2713;42.680;23.310;2023-04-01T00:50:40;20.70;;;13.93;;
5379;SDS011;2713;42.680;23.310;2023-04-01T00:53:13;28.23;;;15.80;;
5379;SDS011;2713;42.680;23.310;2023-04-01T00:55:41;21.30;;;15.10;;
5379;SDS011;2713;42.680;23.310;2023-04-01T00:58:16;24.63;;;14.10;;
5379;SDS011;2713;42.680;23.310;2023-04-01T01:00:45;21.77;;;14.37;;
5379;SDS011;2713;42.680;23.310;2023-04-01T01:03:14;20.53;;;14.70;;
5379;SDS011;2713;42.680;23.310;2023-04-01T01:08:43;18.03;;;13.77;;
5379;SDS011;2713;42.680;23.310;2023-04-01T01:11:25;20.07;;;14.13;;
5379;SDS011;2713;42.680;23.310;2023-04-01T01:14:01;23.60;;;14.13;;
5379;SDS011;2713;42.680;23.310;2023-04-01T01:16:39;16.63;;;13.50;;
5379;SDS011;2713;42.680;23.310;2023-04-01T01:19:15;16.03;;;11.73;;
5379;SDS011;2713;42.680;23.310;2023-04-01T01:22:04;16.23;;;12.60;;
5379;SDS011;2713;42.680;23.310;2023-04-01T01:24:50;14.63;;;11.07;;
5379;SDS011;2713;42.680;23.310;2023-04-01T01:27:25;21.73;;;12.17;;
5379;SDS011;2713;42.680;23.310;2023-04-01T01:30:06;14.87;;;12.30;;
5379;SDS011;2713;42.680;23.310;2023-04-01T01:35:47;15.47;;;10.30;;
5379;SDS011;2713;42.680;23.310;2023-04-01T01:38:19;16.93;;;10.60;;
5379;SDS011;2713;42.680;23.310;2023-04-01T01:40:55;13.00;;;10.10;;
5379;SDS011;2713;42.680;23.310;2023-04-01T01:43:24;11.30;;;8.67;;
5379;SDS011;2713;42.680;23.310;2023-04-01T01:45:54;16.13;;;9.10;;
5379;SDS011;2713;42.680;23.310;2023-04-01T01:48:23;13.00;;;8.37;;
5379;SDS011;2713;42.680;23.310;2023-04-01T01:50:54;12.63;;;9.20;;
5379;SDS011;2713;42.680;23.310;2023-04-01T01:53:21;15.10;;;9.50;;
5379;SDS011;2713;42.680;23.310;2023-04-01T01:55:48;17.13;;;9.90;;
5379;SDS011;2713;42.680;23.310;2023-04-01T01:58:17;16.00;;;10.23;;
5379;SDS011;2713;42.680;23.310;2023-04-01T02:00:49;13.67;;;10.30;;
5379;SDS011;2713;42.680;23.310;2023-04-01T02:03:19;10.77;;;9.03;;
5379;SDS011;2713;42.680;23.310;2023-04-01T02:05:47;14.50;;;8.80;;
5379;SDS011;2713;42.680;23.310;2023-04-01T02:08:19;10.67;;;8.63;;
5379;SDS011;2713;42.680;23.310;2023-04-01T02:10:53;13.73;;;9.17;;
5379;SDS011;2713;42.680;23.310;2023-04-01T02:13:24;12.40;;;8.93;;
5379;SDS011;2713;42.680;23.310;2023-04-01T02:15:58;11.77;;;8.17;;
5379;SDS011;2713;42.680;23.310;2023-04-01T02:18:30;12.57;;;8.80;;
5379;SDS011;2713;42.680;23.310;2023-04-01T02:21:01;11.93;;;8.17;;
5379;SDS011;2713;42.680;23.310;2023-04-01T02:23:33;10.07;;;8.20;;
5379;SDS011;2713;42.680;23.310;2023-04-01T02:26:02;17.87;;;8.63;;
5379;SDS011;2713;42.680;23.310;2023-04-01T02:28:31;10.07;;;7.47;;
5379;SDS011;2713;42.680;23.310;2023-04-01T02:31:00;12.23;;;8.17;;
5379;SDS011;2713;42.680;23.310;2023-04-01T02:33:28;11.07;;;9.03;;
5379;SDS011;2713;42.680;23.310;2023-04-01T02:35:57;11.90;;;7.87;;
5379;SDS011;2713;42.680;23.310;2023-04-01T02:38:24;12.07;;;8.30;;
5379;SDS011;2713;42.680;23.310;2023-04-01T02:40:57;12.10;;;8.30;;
5379;SDS011;2713;42.680;23.310;2023-04-01T02:43:25;15.97;;;8.63;;
5379;SDS011;2713;42.680;23.310;2023-04-01T02:45:52;12.03;;;8.63;;
5379;SDS011;2713;42.680;23.310;2023-04-01T02:48:20;11.10;;;9.23;;
5379;SDS011;2713;42.680;23.310;2023-04-01T02:50:47;11.60;;;9.20;;
5379;SDS011;2713;42.680;23.310;2023-04-01T02:53:13;15.10;;;9.00;;
5379;SDS011;2713;42.680;23.310;2023-04-01T02:55:40;11.57;;;9.40;;
5379;SDS011;2713;42.680;23.310;2023-04-01T02:58:09;11.83;;;9.20;;
5379;SDS011;2713;42.680;23.310;2023-04-01T03:00:36;12.80;;;9.00;;
5379;SDS011;2713;42.680;23.310;2023-04-01T03:03:03;18.60;;;9.60;;
5379;SDS011;2713;42.680;23.310;2023-04-01T03:05:30;11.33;;;8.67;;
5379;SDS011;2713;42.680;23.310;2023-04-01T03:07:57;13.20;;;10.00;;
5379;SDS011;2713;42.680;23.310;2023-04-01T03:10:24;17.00;;;10.10;;
5379;SDS011;2713;42.680;23.310;2023-04-01T03:12:50;12.97;;;9.90;;
5379;SDS011;2713;42.680;23.310;2023-04-01T03:15:19;15.43;;;11.90;;
5379;SDS011;2713;42.680;23.310;2023-04-01T03:17:46;23.23;;;13.63;;
5379;SDS011;2713;42.680;23.310;2023-04-01T03:20:13;21.77;;;13.77;;
5379;SDS011;2713;42.680;23.310;2023-04-01T03:22:40;16.20;;;11.53;;
5379;SDS011;2713;42.680;23.310;2023-04-01T03:25:08;17.37;;;13.10;;
5379;SDS011;2713;42.680;23.310;2023-04-01T03:27:36;16.63;;;12.53;;
5379;SDS011;2713;42.680;23.310;2023-04-01T03:30:05;14.77;;;11.07;;
5379;SDS011;2713;42.680;23.310;2023-04-01T03:32:41;16.37;;;11.10;;
5379;SDS011;2713;42.680;23.310;2023-04-01T03:35:07;16.80;;;11.73;;
5379;SDS011;2713;42.680;23.310;2023-04-01T03:37:35;16.03;;;11.77;;
5379;SDS011;2713;42.680;23.310;2023-04-01T03:40:03;14.67;;;12.10;;
5379;SDS011;2713;42.680;23.310;2023-04-01T03:42:31;15.87;;;12.10;;
5379;SDS011;2713;42.680;23.310;2023-04-01T03:44:58;18.00;;;12.17;;
5379;SDS011;2713;42.680;23.310;2023-04-01T03:47:24;15.40;;;11.43;;
5379;SDS011;2713;42.680;23.310;2023-04-01T03:49:53;17.73;;;12.00;;
5379;SDS011;2713;42.680;23.310;2023-04-01T03:52:20;13.57;;;11.07;;
5379;SDS011;2713;42.680;23.310;2023-04-01T03:54:46;14.83;;;11.27;;
5379;SDS011;2713;42.680;23.310;2023-04-01T03:57:13;13.93;;;10.17;;
5379;SDS011;2713;42.680;23.310;2023-04-01T03:59:40;13.43;;;10.00;;
5379;SDS011;2713;42.680;23.310;2023-04-01T04:02:07;17.47;;;11.40;;
5379;SDS011;2713;42.680;23.310;2023-04-01T04:04:34;13.90;;;9.40;;
5379;SDS011;2713;42.680;23.310;2023-04-01T04:07:02;13.77;;;9.97;;
5379;SDS011;2713;42.680;23.310;2023-04-01T04:09:43;12.73;;;10.40;;
5379;SDS011;2713;42.680;23.310;2023-04-01T04:12:09;11.37;;;8.60;;
5379;SDS011;2713;42.680;23.310;2023-04-01T04:14:37;9.77;;;8.73;;
5379;SDS011;2713;42.680;23.310;2023-04-01T04:17:04;11.00;;;8.43;;
5379;SDS011;2713;42.680;23.310;2023-04-01T04:19:31;10.23;;;9.13;;
5379;SDS011;2713;42.680;23.310;2023-04-01T04:22:00;17.10;;;10.47;;
5379;SDS011;2713;42.680;23.310;2023-04-01T04:24:29;13.93;;;10.03;;
5379;SDS011;2713;42.680;23.310;2023-04-01T04:27:01;13.73;;;10.83;;
5379;SDS011;2713;42.680;23.310;2023-04-01T04:29:28;13.40;;;9.60;;
5379;SDS011;2713;42.680;23.310;2023-04-01T04:31:56;11.20;;;7.93;;
5379;SDS011;2713;42.680;23.310;2023-04-01T04:34:23;10.13;;;7.80;;
5379;SDS011;2713;42.680;23.310;2023-04-01T04:36:50;17.37;;;8.40;;
5379;SDS011;2713;42.680;23.310;2023-04-01T04:39:17;10.60;;;7.57;;
5379;SDS011;2713;42.680;23.310;2023-04-01T04:41:46;10.77;;;8.43;;
5379;SDS011;2713;42.680;23.310;2023-04-01T04:44:13;13.97;;;8.50;;
5379;SDS011;2713;42.680;23.310;2023-04-01T04:46:41;17.27;;;10.87;;
5379;SDS011;2713;42.680;23.310;2023-04-01T04:49:13;14.70;;;9.10;;
5379;SDS011;2713;42.680;23.310;2023-04-01T04:51:40;13.67;;;9.30;;
5379;SDS011;2713;42.680;23.310;2023-04-01T04:54:07;17.60;;;9.17;;
5379;SDS011;2713;42.680;23.310;2023-04-01T04:57:11;14.03;;;9.17;;
5379;SDS011;2713;42.680;23.310;2023-04-01T04:59:44;11.40;;;9.83;;
5379;SDS011;2713;42.680;23.310;2023-04-01T05:02:16;14.80;;;10.00;;
5379;SDS011;2713;42.680;23.310;2023-04-01T05:04:43;16.87;;;9.40;;
5379;SDS011;2713;42.680;23.310;2023-04-01T05:07:10;12.07;;;7.30;;
5379;SDS011;2713;42.680;23.310;2023-04-01T05:09:37;11.60;;;8.30;;
5379;SDS011;2713;42.680;23.310;2023-04-01T05:12:04;9.40;;;7.23;;
5379;SDS011;2713;42.680;23.310;2023-04-01T05:14:55;11.07;;;8.67;;
5379;SDS011;2713;42.680;23.310;2023-04-01T05:17:22;15.10;;;7.93;;
5379;SDS011;2713;42.680;23.310;2023-04-01T05:19:49;10.03;;;8.30;;
5379;SDS011;2713;42.680;23.310;2023-04-01T05:22:16;10.80;;;8.17;;
5379;SDS011;2713;42.680;23.310;2023-04-01T05:24:43;11.97;;;8.70;;
5379;SDS011;2713;42.680;23.310;2023-04-01T05:27:11;9.60;;;7.03;;
5379;SDS011;2713;42.680;23.310;2023-04-01T05:29:39;10.03;;;7.00;;
5379;SDS011;2713;42.680;23.310;2023-04-01T05:32:13;10.40;;;7.60;;
5379;SDS011;2713;42.680;23.310;2023-04-01T05:34:40;11.10;;;8.90;;
5379;SDS011;2713;42.680;23.310;2023-04-01T05:37:07;10.30;;;8.20;;
5379;SDS011;2713;42.680;23.310;2023-04-01T05:39:35;11.00;;;8.13;;
5379;SDS011;2713;42.680;23.310;2023-04-01T05:42:04;16.57;;;8.87;;
5379;SDS011;2713;42.680;23.310;2023-04-01T05:44:32;16.80;;;9.30;;
5379;SDS011;2713;42.680;23.310;2023-04-01T05:47:05;9.47;;;7.60;;
5379;SDS011;2713;42.680;23.310;2023-04-01T05:49:34;10.53;;;6.90;;
5379;SDS011;2713;42.680;23.310;2023-04-01T05:52:02;8.07;;;6.40;;
5379;SDS011;2713;42.680;23.310;2023-04-01T05:54:30;7.87;;;7.07;;
5379;SDS011;2713;42.680;23.310;2023-04-01T05:56:57;6.90;;;6.20;;
5379;SDS011;2713;42.680;23.310;2023-04-01T05:59:24;11.53;;;6.30;;
5379;SDS011;2713;42.680;23.310;2023-04-01T06:01:50;11.07;;;7.03;;
5379;SDS011;2713;42.680;23.310;2023-04-01T06:04:18;10.17;;;6.93;;
5379;SDS011;2713;42.680;23.310;2023-04-01T06:06:47;9.20;;;7.17;;
5379;SDS011;2713;42.680;23.310;2023-04-01T06:09:15;10.70;;;6.87;;
5379;SDS011;2713;42.680;23.310;2023-04-01T06:12:00;8.27;;;6.27;;
5379;SDS011;2713;42.680;23.310;2023-04-01T06:14:51;10.00;;;6.13;;
5379;SDS011;2713;42.680;23.310;2023-04-01T06:17:31;7.40;;;5.57;;
5379;SDS011;2713;42.680;23.310;2023-04-01T06:20:09;7.07;;;6.37;;
5379;SDS011;2713;42.680;23.310;2023-04-01T06:22:46;9.07;;;6.07;;
5379;SDS011;2713;42.680;23.310;2023-04-01T06:25:35;8.20;;;5.60;;
5379;SDS011;2713;42.680;23.310;2023-04-01T06:31:16;7.63;;;5.57;;
5379;SDS011;2713;42.680;23.310;2023-04-01T06:33:56;8.80;;;4.70;;
5379;SDS011;2713;42.680;23.310;2023-04-01T06:36:40;5.20;;;4.70;;
5379;SDS011;2713;42.680;23.310;2023-04-01T06:39:41;7.80;;;4.87;;
5379;SDS011;2713;42.680;23.310;2023-04-01T06:42:24;7.77;;;5.23;;
5379;SDS011;2713;42.680;23.310;2023-04-01T06:45:07;6.87;;;5.80;;
5379;SDS011;2713;42.680;23.310;2023-04-01T06:48:03;7.60;;;5.77;;
5379;SDS011;2713;42.680;23.310;2023-04-01T06:51:01;9.97;;;6.43;;
5379;SDS011;2713;42.680;23.310;2023-04-01T06:53:59;8.63;;;6.70;;
5379;SDS011;2713;42.680;23.310;2023-04-01T06:56:52;7.77;;;6.40;;
5379;SDS011;2713;42.680;23.310;2023-04-01T06:59:25;10.77;;;6.40;;
5379;SDS011;2713;42.680;23.310;2023-04-01T07:01:54;9.63;;;6.00;;
5379;SDS011;2713;42.680;23.310;2023-04-01T07:04:25;14.40;;;6.70;;
5379;SDS011;2713;42.680;23.310;2023-04-01T07:06:57;8.60;;;6.37;;
5379;SDS011;2713;42.680;23.310;2023-04-01T07:09:26;8.50;;;6.47;;
5379;SDS011;2713;42.680;23.310;2023-04-01T07:12:27;11.40;;;6.50;;
5379;SDS011;2713;42.680;23.310;2023-04-01T07:15:17;10.13;;;6.30;;
5379;SDS011;2713;42.680;23.310;2023-04-01T07:17:47;13.77;;;6.10;;
5379;SDS011;2713;42.680;23.310;2023-04-01T07:20:23;11.23;;;6.07;;
5379;SDS011;2713;42.680;23.310;2023-04-01T07:22:54;8.50;;;7.40;;
5379;SDS011;2713;42.680;23.310;2023-04-01T07:25:51;8.70;;;6.43;;
5379;SDS011;2713;42.680;23.310;2023-04-01T07:28:32;11.30;;;6.07;;
5379;SDS011;2713;42.680;23.310;2023-04-01T07:31:10;9.00;;;6.50;;
5379;SDS011;2713;42.680;23.310;2023-04-01T07:33:46;7.97;;;6.33;;
5379;SDS011;2713;42.680;23.310;2023-04-01T07:36:29;10.50;;;6.23;;
5379;SDS011;2713;42.680;23.310;2023-04-01T07:39:05;7.77;;;6.33;;
5379;SDS011;2713;42.680;23.310;2023-04-01T07:41:58;14.03;;;6.40;;
5379;SDS011;2713;42.680;23.310;2023-04-01T07:44:35;12.13;;;6.50;;
5379;SDS011;2713;42.680;23.310;2023-04-01T07:47:17;10.13;;;6.03;;
5379;SDS011;2713;42.680;23.310;2023-04-01T07:49:57;7.30;;;5.73;;
5379;SDS011;2713;42.680;23.310;2023-04-01T07:52:38;10.47;;;6.73;;
5379;SDS011;2713;42.680;23.310;2023-04-01T07:55:20;10.90;;;6.50;;
5379;SDS011;2713;42.680;23.310;2023-04-01T07:57:55;9.13;;;6.00;;
5379;SDS011;2713;42.680;23.310;2023-04-01T08:00:40;13.73;;;6.33;;
5379;SDS011;2713;42.680;23.310;2023-04-01T08:06:18;13.77;;;6.20;;
5379;SDS011;2713;42.680;23.310;2023-04-01T08:08:55;10.53;;;7.60;;
5379;SDS011;2713;42.680;23.310;2023-04-01T08:11:50;10.00;;;7.17;;
5379;SDS011;2713;42.680;23.310;2023-04-01T08:14:48;11.47;;;6.73;;
5379;SDS011;2713;42.680;23.310;2023-04-01T08:17:44;12.60;;;7.23;;
5379;SDS011;2713;42.680;23.310;2023-04-01T08:20:28;8.47;;;6.43;;
5379;SDS011;2713;42.680;23.310;2023-04-01T08:23:05;25.53;;;7.10;;
5379;SDS011;2713;42.680;23.310;2023-04-01T08:25:40;8.87;;;6.20;;
5379;SDS011;2713;42.680;23.310;2023-04-01T08:28:13;13.17;;;6.60;;
5379;SDS011;2713;42.680;23.310;2023-04-01T08:30:47;9.13;;;6.60;;
5379;SDS011;2713;42.680;23.310;2023-04-01T08:33:21;13.00;;;7.00;;
5379;SDS011;2713;42.680;23.310;2023-04-01T08:35:59;7.27;;;5.57;;
5379;SDS011;2713;42.680;23.310;2023-04-01T08:38:32;12.10;;;6.53;;
5379;SDS011;2713;42.680;23.310;2023-04-01T08:41:11;8.93;;;6.60;;
5379;SDS011;2713;42.680;23.310;2023-04-01T08:44:50;7.00;;;6.30;;
5379;SDS011;2713;42.680;23.310;2023-04-01T08:50:51;11.43;;;8.37;;
5379;SDS011;2713;42.680;23.310;2023-04-01T08:56:41;10.83;;;6.00;;
5379;SDS011;2713;42.680;23.310;2023-04-01T08:59:31;12.73;;;7.27;;
5379;SDS011;2713;42.680;23.310;2023-04-01T09:02:44;7.60;;;5.33;;
5379;SDS011;2713;42.680;23.310;2023-04-01T09:05:29;10.47;;;5.33;;
5379;SDS011;2713;42.680;23.310;2023-04-01T09:08:10;6.50;;;5.73;;
5379;SDS011;2713;42.680;23.310;2023-04-01T09:14:02;5.40;;;4.87;;
5379;SDS011;2713;42.680;23.310;2023-04-01T09:16:45;9.13;;;5.23;;
5379;SDS011;2713;42.680;23.310;2023-04-01T09:19:33;8.10;;;4.70;;
5379;SDS011;2713;42.680;23.310;2023-04-01T09:22:18;8.87;;;4.90;;
5379;SDS011;2713;42.680;23.310;2023-04-01T09:24:58;6.60;;;4.40;;
5379;SDS011;2713;42.680;23.310;2023-04-01T09:27:56;8.73;;;4.43;;
5379;SDS011;2713;42.680;23.310;2023-04-01T09:30:33;5.63;;;4.13;;
5379;SDS011;2713;42.680;23.310;2023-04-01T09:36:43;8.00;;;4.90;;
5379;SDS011;2713;42.680;23.310;2023-04-01T09:39:19;6.50;;;4.90;;
5379;SDS011;2713;42.680;23.310;2023-04-01T09:45:18;8.10;;;4.53;;
5379;SDS011;2713;42.680;23.310;2023-04-01T09:48:04;9.10;;;4.40;;
5379;SDS011;2713;42.680;23.310;2023-04-01T09:50:43;11.50;;;6.60;;
5379;SDS011;2713;42.680;23.310;2023-04-01T09:53:28;11.57;;;5.57;;
5379;SDS011;2713;42.680;23.310;2023-04-01T09:56:18;5.60;;;4.30;;
5379;SDS011;2713;42.680;23.310;2023-04-01T09:59:02;5.40;;;4.80;;
5379;SDS011;2713;42.680;23.310;2023-04-01T10:08:09;5.13;;;4.07;;
5379;SDS011;2713;42.680;23.310;2023-04-01T10:11:04;8.23;;;4.53;;
5379;SDS011;2713;42.680;23.310;2023-04-01T10:13:56;4.17;;;3.77;;
5379;SDS011;2713;42.680;23.310;2023-04-01T10:26:09;6.43;;;4.10;;
5379;SDS011;2713;42.680;23.310;2023-04-01T10:29:19;4.83;;;3.77;;
5379;SDS011;2713;42.680;23.310;2023-04-01T10:38:38;7.10;;;5.20;;
5379;SDS011;2713;42.680;23.310;2023-04-01T10:41:32;5.77;;;4.37;;
5379;SDS011;2713;42.680;23.310;2023-04-01T10:44:48;5.20;;;4.47;;
5379;SDS011;2713;42.680;23.310;2023-04-01T10:47:58;4.40;;;4.00;;
5379;SDS011;2713;42.680;23.310;2023-04-01T10:50:50;8.47;;;4.60;;
5379;SDS011;2713;42.680;23.310;2023-04-01T10:56:50;4.63;;;4.23;;
5379;SDS011;2713;42.680;23.310;2023-04-01T11:06:43;5.90;;;4.50;;
5379;SDS011;2713;42.680;23.310;2023-04-01T11:12:48;8.20;;;4.70;;
5379;SDS011;2713;42.680;23.310;2023-04-01T11:22:00;9.37;;;7.03;;
5379;SDS011;2713;42.680;23.310;2023-04-01T11:31:29;7.87;;;3.40;;
5379;SDS011;2713;42.680;23.310;2023-04-01T11:34:11;5.87;;;2.40;;
5379;SDS011;2713;42.680;23.310;2023-04-01T11:36:48;4.43;;;2.77;;
5379;SDS011;2713;42.680;23.310;2023-04-01T11:39:31;5.90;;;2.50;;
5379;SDS011;2713;42.680;23.310;2023-04-01T11:42:43;6.23;;;2.90;;
5379;SDS011;2713;42.680;23.310;2023-04-01T11:45:39;7.50;;;2.67;;
5379;SDS011;2713;42.680;23.310;2023-04-01T11:48:19;4.47;;;3.13;;
5379;SDS011;2713;42.680;23.310;2023-04-01T11:51:04;6.73;;;3.00;;
5379;SDS011;2713;42.680;23.310;2023-04-01T11:53:44;5.23;;;2.87;;
5379;SDS011;2713;42.680;23.310;2023-04-01T11:56:34;4.90;;;3.10;;
5379;SDS011;2713;42.680;23.310;2023-04-01T11:59:29;8.00;;;4.30;;
5379;SDS011;2713;42.680;23.310;2023-04-01T12:02:09;4.50;;;3.67;;
5379;SDS011;2713;42.680;23.310;2023-04-01T12:04:54;9.60;;;3.70;;
5379;SDS011;2713;42.680;23.310;2023-04-01T12:10:38;5.53;;;3.47;;
5379;SDS011;2713;42.680;23.310;2023-04-01T12:13:13;4.50;;;3.23;;
5379;SDS011;2713;42.680;23.310;2023-04-01T12:15:54;3.90;;;3.43;;
5379;SDS011;2713;42.680;23.310;2023-04-01T12:18:34;5.60;;;3.77;;
5379;SDS011;2713;42.680;23.310;2023-04-01T12:21:08;4.70;;;3.40;;
5379;SDS011;2713;42.680;23.310;2023-04-01T12:26:56;7.80;;;4.73;;
5379;SDS011;2713;42.680;23.310;2023-04-01T12:29:43;7.27;;;5.70;;
5379;SDS011;2713;42.680;23.310;2023-04-01T12:32:23;7.43;;;5.73;;
5379;SDS011;2713;42.680;23.310;2023-04-01T12:37:47;6.50;;;5.27;;
5379;SDS011;2713;42.680;23.310;2023-04-01T12:40:25;9.90;;;7.83;;
5379;SDS011;2713;42.680;23.310;2023-04-01T12:43:05;8.40;;;7.27;;
5379;SDS011;2713;42.680;23.310;2023-04-01T12:45:49;7.00;;;6.30;;
5379;SDS011;2713;42.680;23.310;2023-04-01T12:51:31;9.60;;;5.10;;
5379;SDS011;2713;42.680;23.310;2023-04-01T13:00:26;6.13;;;5.17;;
5379;SDS011;2713;42.680;23.310;2023-04-01T13:06:14;5.90;;;4.50;;
5379;SDS011;2713;42.680;23.310;2023-04-01T13:09:02;8.13;;;4.60;;
5379;SDS011;2713;42.680;23.310;2023-04-01T13:11:45;4.90;;;4.40;;
5379;SDS011;2713;42.680;23.310;2023-04-01T13:14:34;7.63;;;4.50;;
5379;SDS011;2713;42.680;23.310;2023-04-01T13:17:12;7.27;;;4.93;;
5379;SDS011;2713;42.680;23.310;2023-04-01T13:19:47;9.40;;;5.30;;
5379;SDS011;2713;42.680;23.310;2023-04-01T13:22:19;7.10;;;6.40;;
5379;SDS011;2713;42.680;23.310;2023-04-01T13:24:54;10.13;;;7.23;;
5379;SDS011;2713;42.680;23.310;2023-04-01T13:27:29;9.10;;;8.20;;
5379;SDS011;2713;42.680;23.310;2023-04-01T13:30:02;6.40;;;5.80;;
5379;SDS011;2713;42.680;23.310;2023-04-01T13:32:44;6.50;;;5.37;;
5379;SDS011;2713;42.680;23.310;2023-04-01T13:35:20;8.13;;;5.47;;
5379;SDS011;2713;42.680;23.310;2023-04-01T13:38:01;6.40;;;5.80;;
5379;SDS011;2713;42.680;23.310;2023-04-01T13:40:39;11.33;;;5.30;;
5379;SDS011;2713;42.680;23.310;2023-04-01T13:43:16;4.80;;;4.00;;
5379;SDS011;2713;42.680;23.310;2023-04-01T13:45:55;6.83;;;4.67;;
5379;SDS011;2713;42.680;23.310;2023-04-01T13:48:36;4.70;;;3.80;;
5379;SDS011;2713;42.680;23.310;2023-04-01T13:54:34;2.90;;;2.70;;
5379;SDS011;2713;42.680;23.310;2023-04-01T13:57:22;8.10;;;4.77;;
5379;SDS011;2713;42.680;23.310;2023-04-01T14:00:15;4.60;;;3.83;;
5379;SDS011;2713;42.680;23.310;2023-04-01T14:02:58;6.50;;;5.17;;
5379;SDS011;2713;42.680;23.310;2023-04-01T14:05:50;3.80;;;3.10;;
5379;SDS011;2713;42.680;23.310;2023-04-01T14:08:29;6.00;;;4.37;;
5379;SDS011;2713;42.680;23.310;2023-04-01T14:11:07;3.50;;;3.20;;
5379;SDS011;2713;42.680;23.310;2023-04-01T14:13:41;3.40;;;3.20;;
5379;SDS011;2713;42.680;23.310;2023-04-01T14:16:26;2.67;;;2.47;;
5379;SDS011;2713;42.680;23.310;2023-04-01T14:19:22;2.00;;;1.90;;
5379;SDS011;2713;42.680;23.310;2023-04-01T14:22:08;2.80;;;1.70;;
5379;SDS011;2713;42.680;23.310;2023-04-01T14:24:57;1.87;;;1.47;;
5379;SDS011;2713;42.680;23.310;2023-04-01T14:27:48;1.67;;;1.57;;
5379;SDS011;2713;42.680;23.310;2023-04-01T14:30:34;3.43;;;2.90;;
5379;SDS011;2713;42.680;23.310;2023-04-01T14:33:12;2.17;;;1.63;;
5379;SDS011;2713;42.680;23.310;2023-04-01T14:35:49;1.40;;;1.30;;
5379;SDS011;2713;42.680;23.310;2023-04-01T14:38:32;3.10;;;1.77;;
5379;SDS011;2713;42.680;23.310;2023-04-01T14:41:25;4.53;;;2.00;;
5379;SDS011;2713;42.680;23.310;2023-04-01T14:50:11;4.13;;;1.73;;
5379;SDS011;2713;42.680;23.310;2023-04-01T14:52:42;3.70;;;2.60;;
5379;SDS011;2713;42.680;23.310;2023-04-01T14:55:20;6.70;;;4.20;;
5379;SDS011;2713;42.680;23.310;2023-04-01T15:03:40;6.40;;;4.60;;
5379;SDS011;2713;42.680;23.310;2023-04-01T15:06:28;6.43;;;3.77;;
5379;SDS011;2713;42.680;23.310;2023-04-01T15:09:11;10.27;;;4.90;;
5379;SDS011;2713;42.680;23.310;2023-04-01T15:11:48;4.97;;;4.23;;
5379;SDS011;2713;42.680;23.310;2023-04-01T15:14:30;4.10;;;3.80;;
5379;SDS011;2713;42.680;23.310;2023-04-01T15:17:30;3.80;;;3.37;;
5379;SDS011;2713;42.680;23.310;2023-04-01T15:20:22;4.20;;;3.80;;
5379;SDS011;2713;42.680;23.310;2023-04-01T15:23:02;4.33;;;3.50;;
5379;SDS011;2713;42.680;23.310;2023-04-01T15:25:45;4.70;;;4.00;;
5379;SDS011;2713;42.680;23.310;2023-04-01T15:28:34;4.80;;;3.90;;
5379;SDS011;2713;42.680;23.310;2023-04-01T15:31:10;6.20;;;3.33;;
5379;SDS011;2713;42.680;23.310;2023-04-01T15:33:45;4.53;;;4.00;;
5379;SDS011;2713;42.680;23.310;2023-04-01T15:36:24;4.67;;;4.03;;
5379;SDS011;2713;42.680;23.310;2023-04-01T15:39:00;4.90;;;3.20;;
5379;SDS011;2713;42.680;23.310;2023-04-01T15:41:39;3.73;;;3.43;;
5379;SDS011;2713;42.680;23.310;2023-04-01T15:47:25;6.63;;;4.07;;
5379;SDS011;2713;42.680;23.310;2023-04-01T15:50:11;12.73;;;3.70;;
5379;SDS011;2713;42.680;23.310;2023-04-01T15:52:54;2.33;;;1.60;;
5379;SDS011;2713;42.680;23.310;2023-04-01T15:55:30;1.70;;;1.60;;
5379;SDS011;2713;42.680;23.310;2023-04-01T15:58:06;3.47;;;2.00;;
5379;SDS011;2713;42.680;23.310;2023-04-01T16:00:58;2.10;;;2.00;;
5379;SDS011;2713;42.680;23.310;2023-04-01T16:03:40;3.80;;;2.80;;
5379;SDS011;2713;42.680;23.310;2023-04-01T16:06:21;3.97;;;3.20;;
5379;SDS011;2713;42.680;23.310;2023-04-01T16:09:02;4.30;;;3.93;;
5379;SDS011;2713;42.680;23.310;2023-04-01T16:11:53;2.90;;;2.60;;
5379;SDS011;2713;42.680;23.310;2023-04-01T16:14:29;3.40;;;3.10;;
5379;SDS011;2713;42.680;23.310;2023-04-01T16:17:11;3.37;;;3.07;;
5379;SDS011;2713;42.680;23.310;2023-04-01T16:19:58;3.43;;;3.13;;
5379;SDS011;2713;42.680;23.310;2023-04-01T16:22:30;3.57;;;3.33;;
5379;SDS011;2713;42.680;23.310;2023-04-01T16:25:07;5.00;;;4.00;;
5379;SDS011;2713;42.680;23.310;2023-04-01T16:27:46;6.67;;;3.90;;
5379;SDS011;2713;42.680;23.310;2023-04-01T16:30:23;4.27;;;3.67;;
5379;SDS011;2713;42.680;23.310;2023-04-01T16:33:00;4.37;;;3.97;;
5379;SDS011;2713;42.680;23.310;2023-04-01T16:35:34;4.30;;;3.90;;
5379;SDS011;2713;42.680;23.310;2023-04-01T16:38:15;4.40;;;4.00;;
5379;SDS011;2713;42.680;23.310;2023-04-01T16:40:52;2.90;;;2.70;;
5379;SDS011;2713;42.680;23.310;2023-04-01T16:43:37;3.27;;;3.07;;
5379;SDS011;2713;42.680;23.310;2023-04-01T16:46:18;3.10;;;2.80;;
5379;SDS011;2713;42.680;23.310;2023-04-01T16:48:58;3.20;;;2.90;;
5379;SDS011;2713;42.680;23.310;2023-04-01T16:51:31;2.40;;;2.20;;
5379;SDS011;2713;42.680;23.310;2023-04-01T16:54:06;5.67;;;2.70;;
5379;SDS011;2713;42.680;23.310;2023-04-01T16:56:41;2.00;;;1.90;;
5379;SDS011;2713;42.680;23.310;2023-04-01T16:59:14;2.70;;;2.50;;
5379;SDS011;2713;42.680;23.310;2023-04-01T17:01:47;2.30;;;2.10;;
5379;SDS011;2713;42.680;23.310;2023-04-01T17:04:20;2.40;;;2.30;;
5379;SDS011;2713;42.680;23.310;2023-04-01T17:06:56;2.23;;;2.03;;
5379;SDS011;2713;42.680;23.310;2023-04-01T17:12:45;1.67;;;1.57;;
5379;SDS011;2713;42.680;23.310;2023-04-01T17:15:20;2.13;;;2.03;;
5379;SDS011;2713;42.680;23.310;2023-04-01T17:17:56;2.07;;;1.97;;
5379;SDS011;2713;42.680;23.310;2023-04-01T17:20:31;1.80;;;1.70;;
5379;SDS011;2713;42.680;23.310;2023-04-01T17:23:09;1.77;;;1.67;;
5379;SDS011;2713;42.680;23.310;2023-04-01T17:28:50;1.57;;;1.47;;
5379;SDS011;2713;42.680;23.310;2023-04-01T17:31:30;1.70;;;1.60;;
5379;SDS011;2713;42.680;23.310;2023-04-01T17:34:06;3.40;;;1.90;;
5379;SDS011;2713;42.680;23.310;2023-04-01T17:36:54;1.73;;;1.60;;
5379;SDS011;2713;42.680;23.310;2023-04-01T17:39:49;2.00;;;1.90;;
5379;SDS011;2713;42.680;23.310;2023-04-01T17:42:30;1.90;;;1.80;;
5379;SDS011;2713;42.680;23.310;2023-04-01T17:45:04;1.60;;;1.50;;
5379;SDS011;2713;42.680;23.310;2023-04-01T17:47:40;2.50;;;2.40;;
5379;SDS011;2713;42.680;23.310;2023-04-01T17:50:20;2.27;;;2.17;;
5379;SDS011;2713;42.680;23.310;2023-04-01T17:52:54;2.90;;;2.70;;
5379;SDS011;2713;42.680;23.310;2023-04-01T17:55:43;1.70;;;1.60;;
5379;SDS011;2713;42.680;23.310;2023-04-01T17:58:18;2.23;;;2.13;;